Time;durP1;ratioP1;P1;durP2;ratioP2;P2;SDS_P1;SDS_P2;PMS_P1;PMS_P2;Temp;Humidity;BMP_temperature;BMP_pressure;BME280_temperature;BME280_humidity;BME280_pressure;Samples;Min_cycle;Max_cycle;Signal;HPM_P1;HPM_P2
2022/03/14 00:06:59;;;;;;;2.63;1.08;;;9.00;58.20;;;;;;20789559;28;20112;-74
2022/03/14 00:17:02;;;;;;;2.00;1.10;;;9.00;58.10;;;;;;20819463;28;20445;-73
2022/03/14 00:27:02;;;;;;;2.17;1.13;;;9.00;58.00;;;;;;20818485;28;20077;-72
2022/03/14 00:37:03;;;;;;;3.47;1.05;;;9.00;58.00;;;;;;20817152;28;20077;-73
2022/03/14 00:47:04;;;;;;;1.80;1.10;;;9.00;58.10;;;;;;20833919;28;20312;-73
2022/03/14 00:57:04;;;;;;;2.20;1.17;;;9.00;58.10;;;;;;20798559;28;20071;-73
2022/03/14 01:07:05;;;;;;;2.03;1.08;;;9.00;58.00;;;;;;20814597;28;20052;-73
2022/03/14 01:17:06;;;;;;;2.88;1.58;;;9.00;57.80;;;;;;20814279;28;20052;-73
2022/03/14 01:27:07;;;;;;;3.15;1.40;;;9.00;57.70;;;;;;20830879;28;20029;-73
2022/03/14 01:37:07;;;;;;;2.80;1.33;;;8.90;57.40;;;;;;20812321;28;20129;-74
2022/03/14 01:47:08;;;;;;;3.35;1.60;;;9.00;57.40;;;;;;20811683;28;20032;-73
2022/03/14 01:57:09;;;;;;;2.30;1.33;;;8.90;57.20;;;;;;20795411;28;20120;-72
2022/03/14 02:07:10;;;;;;;2.40;1.23;;;8.90;57.10;;;;;;21166363;22;20492;-73
2022/03/14 02:17:15;;;;;;;3.88;1.60;;;8.90;57.10;;;;;;20700001;28;20293;-73
2022/03/14 02:27:15;;;;;;;3.15;1.50;;;8.90;57.10;;;;;;20711161;28;20038;-72
2022/03/14 02:37:16;;;;;;;5.88;1.83;;;8.90;57.10;;;;;;20710226;28;20035;-72
2022/03/14 02:47:17;;;;;;;3.63;1.80;;;8.90;57.10;;;;;;20709564;28;20485;-72
2022/03/14 02:57:19;;;;;;;3.65;1.63;;;8.90;57.10;;;;;;20708909;28;20029;-74
2022/03/14 03:07:19;;;;;;;2.95;1.50;;;8.90;57.10;;;;;;20693312;28;20395;-74
2022/03/14 03:17:21;;;;;;;3.30;1.67;;;8.90;57.10;;;;;;20723934;28;20117;-73
2022/03/14 03:27:21;;;;;;;2.65;1.33;;;8.90;57.20;;;;;;20723504;28;20397;-73
2022/03/14 03:37:22;;;;;;;3.58;2.00;;;8.90;57.20;;;;;;20707566;28;20045;-73
2022/03/14 03:47:24;;;;;;;3.38;1.67;;;8.80;57.20;;;;;;20690709;28;20138;-73
2022/03/14 03:57:24;;;;;;;4.00;2.08;;;8.80;57.10;;;;;;20706594;28;20053;-73
2022/03/14 04:07:26;;;;;;;3.95;2.30;;;8.80;57.10;;;;;;20706851;28;20440;-74
2022/03/14 04:17:28;;;;;;;3.92;1.77;;;8.80;57.00;;;;;;20706242;28;20045;-72
2022/03/14 04:27:28;;;;;;;4.22;2.08;;;8.80;57.00;;;;;;20692181;28;20038;-73
2022/03/14 04:37:29;;;;;;;3.17;1.83;;;8.80;57.00;;;;;;20697475;28;20096;-72
2022/03/14 04:47:29;;;;;;;5.97;1.83;;;8.80;56.90;;;;;;20720336;28;20069;-73
2022/03/14 04:57:30;;;;;;;4.78;2.10;;;8.80;56.80;;;;;;20717669;28;20358;-73
2022/03/14 05:07:31;;;;;;;4.15;1.83;;;8.80;56.80;;;;;;20717535;28;20685;-73
2022/03/14 05:17:31;;;;;;;4.53;2.30;;;8.80;56.80;;;;;;20716447;28;20111;-72
2022/03/14 05:27:32;;;;;;;4.47;1.97;;;8.70;56.70;;;;;;20699528;28;20792;-72
2022/03/14 05:37:32;;;;;;;3.47;1.95;;;8.80;56.80;;;;;;20730918;28;20324;-73
2022/03/14 05:47:33;;;;;;;4.47;2.45;;;8.70;56.90;;;;;;20713854;28;20037;-74
2022/03/14 05:57:34;;;;;;;6.97;2.35;;;8.70;56.60;;;;;;20697379;28;20176;-74
2022/03/14 06:07:34;;;;;;;4.68;2.72;;;8.70;56.50;;;;;;20704220;28;20517;-74
2022/03/14 06:17:36;;;;;;;5.40;2.33;;;8.70;56.50;;;;;;20724315;28;20038;-74
2022/03/14 06:27:37;;;;;;;5.65;2.60;;;8.70;56.50;;;;;;20702266;28;20026;-79
2022/03/14 06:37:38;;;;;;;5.57;2.70;;;8.70;56.50;;;;;;20709338;28;20780;-73
2022/03/14 06:47:39;;;;;;;5.05;2.45;;;8.70;56.40;;;;;;20733420;28;20053;-74
2022/03/14 06:57:40;;;;;;;6.47;2.30;;;8.60;56.40;;;;;;20710231;28;20383;-79
2022/03/14 07:07:41;;;;;;;3.83;2.30;;;8.60;56.40;;;;;;20710379;28;20050;-76
2022/03/14 07:17:41;;;;;;;7.25;2.10;;;8.70;56.40;;;;;;20717565;28;20731;-76
2022/03/14 07:27:42;;;;;;;5.47;1.90;;;8.70;56.50;;;;;;20663470;28;20033;-74
2022/03/14 07:37:42;;;;;;;5.15;2.42;;;8.60;56.50;;;;;;20707652;28;21056;-77
2022/03/14 07:47:43;;;;;;;5.83;2.80;;;8.70;56.60;;;;;;20688942;28;20046;-75
2022/03/14 07:57:46;;;;;;;4.78;2.03;;;8.70;56.60;;;;;;20723102;28;20340;-75
2022/03/14 08:07:47;;;;;;;4.22;2.38;;;8.60;56.70;;;;;;20708423;28;20104;-75
2022/03/14 08:17:47;;;;;;;5.70;2.53;;;8.60;56.70;;;;;;20720716;28;20033;-75
2022/03/14 08:27:48;;;;;;;4.07;2.00;;;8.70;56.80;;;;;;20703512;28;20034;-72
2022/03/14 08:37:51;;;;;;;3.78;2.05;;;8.70;56.80;;;;;;20698811;28;20806;-75
2022/03/14 08:47:52;;;;;;;3.53;2.10;;;8.70;56.80;;;;;;20734389;28;20042;-75
2022/03/14 08:57:54;;;;;;;3.78;2.10;;;8.70;56.80;;;;;;20704382;28;20037;-72
2022/03/14 09:07:54;;;;;;;5.75;2.28;;;8.70;56.80;;;;;;20718285;28;20042;-74
2022/03/14 09:18:03;;;;;;;7.35;2.58;;;8.70;56.70;;;;;;20716891;28;20500;-74
2022/03/14 09:28:03;;;;;;;4.55;2.45;;;8.80;56.70;;;;;;20716778;28;20038;-76
2022/03/14 09:38:05;;;;;;;6.18;2.75;;;8.80;56.70;;;;;;20705845;28;20133;-75
2022/03/14 09:48:05;;;;;;;8.02;3.65;;;8.70;56.60;;;;;;20712444;28;20137;-75
2022/03/14 09:58:10;;;;;;;6.95;4.20;;;8.80;56.60;;;;;;20710027;28;20493;-75
2022/03/14 10:08:11;;;;;;;5.82;3.60;;;8.80;56.50;;;;;;20699165;28;20050;-74
2022/03/14 10:18:17;;;;;;;5.85;3.33;;;8.80;56.70;;;;;;20710068;28;20493;-75
2022/03/14 10:28:18;;;;;;;9.97;3.43;;;8.80;56.90;;;;;;20695927;28;20049;-76
2022/03/14 10:38:19;;;;;;;4.72;2.97;;;8.80;57.20;;;;;;20726625;28;20615;-76
2022/03/14 10:48:33;;;;;;;7.10;3.20;;;8.90;57.50;;;;;;20725868;28;20072;-78
2022/03/14 10:58:34;;;;;;;8.75;3.47;;;8.90;57.70;;;;;;20728183;28;20104;-84
2022/03/14 11:08:38;;;;;;;7.18;3.67;;;8.90;57.90;;;;;;20712726;28;20038;-75
2022/03/14 11:18:38;;;;;;;7.65;3.17;;;8.90;58.10;;;;;;20745120;28;20038;-79
2022/03/14 11:28:41;;;;;;;4.60;2.65;;;8.90;58.30;;;;;;20726619;28;20030;-75
2022/03/14 11:38:41;;;;;;;7.50;2.88;;;8.90;58.40;;;;;;20708766;28;20072;-74
2022/03/14 11:48:42;;;;;;;7.32;2.80;;;8.90;58.50;;;;;;20706116;28;20061;-74
2022/03/14 11:58:53;;;;;;;6.68;2.85;;;8.90;58.70;;;;;;20724290;28;20052;-75
2022/03/14 12:08:54;;;;;;;5.03;2.40;;;8.90;58.70;;;;;;20707453;28;20034;-75
2022/03/14 12:18:57;;;;;;;5.80;2.83;;;8.90;58.80;;;;;;20737454;28;20125;-75
2022/03/14 12:28:59;;;;;;;4.63;2.47;;;8.90;58.90;;;;;;20720099;28;20034;-77
2022/03/14 12:39:07;;;;;;;6.82;3.08;;;9.00;59.00;;;;;;20753264;28;20042;-74
2022/03/14 12:49:08;;;;;;;4.53;2.17;;;9.00;59.20;;;;;;20769989;28;20034;-77
2022/03/14 12:59:09;;;;;;;3.33;2.45;;;9.00;59.30;;;;;;20703238;28;20036;-76
2022/03/14 13:09:10;;;;;;;4.80;2.58;;;9.00;59.40;;;;;;20719841;28;20030;-74
2022/03/14 13:19:18;;;;;;;4.88;2.72;;;9.00;59.60;;;;;;20735684;28;20037;-77
2022/03/14 13:29:19;;;;;;;3.60;2.05;;;9.00;59.70;;;;;;20657546;28;20034;-77
2022/03/14 13:39:21;;;;;;;7.35;3.00;;;9.00;59.80;;;;;;20734119;28;20062;-77
2022/03/14 13:49:23;;;;;;;3.83;1.85;;;9.00;59.90;;;;;;20699521;28;20050;-74
2022/03/14 13:59:32;;;;;;;6.60;2.20;;;9.00;60.00;;;;;;20689437;28;20087;-74
2022/03/14 14:09:40;;;;;;;4.75;2.00;;;9.00;60.10;;;;;;20682588;28;20426;-77
2022/03/14 14:20:06;;;;;;;2.88;1.58;;;9.00;60.20;;;;;;20694635;28;20717;-75
2022/03/14 14:30:07;;;;;;;2.80;1.67;;;9.00;60.20;;;;;;20721408;28;20042;-74
2022/03/14 14:40:08;;;;;;;4.22;1.60;;;9.00;60.30;;;;;;20724320;28;20046;-77
2022/03/14 14:50:08;;;;;;;5.07;1.58;;;9.00;60.40;;;;;;20740859;28;20029;-74
2022/03/14 15:00:10;;;;;;;2.22;1.58;;;9.00;60.40;;;;;;20689200;28;20058;-74
2022/03/14 15:10:11;;;;;;;2.25;1.20;;;9.00;60.40;;;;;;20721364;28;20076;-73
2022/03/14 15:20:12;;;;;;;3.45;1.70;;;9.00;60.50;;;;;;20737819;28;20034;-74
2022/03/14 15:30:13;;;;;;;2.65;1.55;;;9.00;60.50;;;;;;20678046;28;20040;-76
2022/03/14 15:40:16;;;;;;;2.00;1.23;;;9.00;60.50;;;;;;20721078;28;20046;-77
2022/03/14 15:50:17;;;;;;;2.28;1.30;;;9.00;60.60;;;;;;20717916;28;20030;-69
2022/03/14 16:00:18;;;;;;;3.30;1.58;;;9.00;60.60;;;;;;20710375;28;20058;-71
2022/03/14 16:10:18;;;;;;;2.45;1.17;;;9.00;60.70;;;;;;20714880;28;20062;-70
2022/03/14 16:20:19;;;;;;;3.40;1.55;;;9.00;60.70;;;;;;20701246;28;20112;-68
2022/03/14 16:30:20;;;;;;;2.50;1.33;;;9.00;60.70;;;;;;20709013;28;20034;-69
2022/03/14 16:40:21;;;;;;;1.75;1.05;;;9.00;60.70;;;;;;20732046;28;20042;-70
2022/03/14 16:50:25;;;;;;;1.85;1.10;;;9.00;60.80;;;;;;20714774;28;20034;-75
2022/03/14 17:00:26;;;;;;;2.47;1.45;;;9.00;60.80;;;;;;20720958;28;20145;-77
2022/03/14 17:10:35;;;;;;;1.98;1.20;;;9.00;60.90;;;;;;20733456;28;20037;-75
2022/03/14 17:20:37;;;;;;;2.17;1.25;;;9.00;61.00;;;;;;20720111;28;20038;-77
2022/03/14 17:30:39;;;;;;;3.83;1.90;;;9.00;61.10;;;;;;20718407;28;20474;-77
2022/03/14 17:40:40;;;;;;;3.28;1.90;;;9.00;61.40;;;;;;20700878;28;20034;-77
2022/03/14 17:50:42;;;;;;;1.98;1.45;;;9.00;61.70;;;;;;20713000;28;20117;-77
2022/03/14 18:00:43;;;;;;;7.78;1.17;;;9.00;61.90;;;;;;20713040;28;20468;-77
2022/03/14 18:10:43;;;;;;;2.85;1.50;;;9.00;62.00;;;;;;20698383;28;20073;-77
2022/03/14 18:20:44;;;;;;;2.85;1.60;;;9.00;62.00;;;;;;20696972;28;20030;-77
2022/03/14 18:30:44;;;;;;;1.60;1.20;;;9.00;62.10;;;;;;20728801;28;20037;-77
2022/03/14 18:40:45;;;;;;;2.15;1.30;;;9.00;62.10;;;;;;20712296;28;20060;-77
2022/03/14 18:50:47;;;;;;;2.75;1.90;;;9.00;62.20;;;;;;20710772;28;20377;-77
2022/03/14 19:00:47;;;;;;;2.72;1.52;;;9.00;62.20;;;;;;20710799;28;20048;-79
2022/03/14 19:10:50;;;;;;;2.50;1.42;;;9.00;62.40;;;;;;20713032;28;20071;-77
2022/03/14 19:20:52;;;;;;;3.42;1.60;;;9.00;62.50;;;;;;20696064;28;20049;-77
2022/03/14 19:30:54;;;;;;;3.00;1.67;;;9.00;62.60;;;;;;20712914;28;20076;-77
2022/03/14 19:40:55;;;;;;;2.00;1.55;;;9.00;62.70;;;;;;20709759;28;20073;-77
2022/03/14 19:50:58;;;;;;;3.92;1.45;;;9.00;62.70;;;;;;20707737;28;20093;-75
2022/03/14 20:00:58;;;;;;;2.03;1.33;;;9.10;62.80;;;;;;20704097;28;20073;-75
2022/03/14 20:10:59;;;;;;;1.92;1.08;;;9.10;62.80;;;;;;20722736;28;20033;-75
2022/03/14 20:21:00;;;;;;;2.70;1.40;;;9.10;62.80;;;;;;20722124;28;20532;-75
2022/03/14 20:31:00;;;;;;;2.88;1.55;;;9.00;62.80;;;;;;20704758;28;20034;-75
2022/03/14 20:41:01;;;;;;;2.97;1.52;;;9.10;63.00;;;;;;20736219;28;20069;-75
2022/03/14 20:51:02;;;;;;;2.63;1.52;;;9.00;62.90;;;;;;20719573;28;20074;-76
2022/03/14 21:01:03;;;;;;;2.70;1.50;;;9.10;63.10;;;;;;20720753;28;20616;-75
2022/03/14 21:11:04;;;;;;;6.20;1.65;;;9.00;63.00;;;;;;20717915;28;20125;-76
2022/03/14 21:21:04;;;;;;;2.97;1.95;;;9.10;63.10;;;;;;20701133;28;20040;-76
2022/03/14 21:31:05;;;;;;;2.35;1.50;;;9.10;63.10;;;;;;20717483;28;20434;-75
2022/03/14 21:41:10;;;;;;;2.95;1.75;;;9.10;63.20;;;;;;20709905;28;20480;-76
2022/03/14 21:51:11;;;;;;;2.17;1.33;;;9.10;63.10;;;;;;20722562;28;20489;-75
2022/03/14 22:01:12;;;;;;;2.25;1.27;;;9.10;63.10;;;;;;20706307;28;20033;-75
2022/03/14 22:11:13;;;;;;;2.22;1.60;;;9.10;63.10;;;;;;20706020;28;20648;-76
2022/03/14 22:21:16;;;;;;;3.20;1.67;;;9.10;63.10;;;;;;20737920;28;20033;-75
2022/03/14 22:31:17;;;;;;;2.47;1.60;;;9.10;63.20;;;;;;20718185;28;20473;-76
2022/03/14 22:41:17;;;;;;;2.83;1.85;;;9.00;63.20;;;;;;20736983;28;20113;-76
2022/03/14 22:51:19;;;;;;;2.65;1.63;;;9.10;63.30;;;;;;20687995;28;20065;-76
2022/03/14 23:01:21;;;;;;;2.25;1.30;;;9.10;63.30;;;;;;20709705;28;20065;-75
2022/03/14 23:11:30;;;;;;;2.30;1.60;;;9.00;63.30;;;;;;20710739;28;20056;-76
2022/03/14 23:21:31;;;;;;;2.38;1.52;;;9.00;63.30;;;;;;20711965;28;20092;-75
2022/03/14 23:31:32;;;;;;;1.90;1.30;;;9.10;63.40;;;;;;20710124;28;20041;-76
2022/03/14 23:41:33;;;;;;;2.22;1.60;;;9.00;63.30;;;;;;20736588;28;20045;-77
2022/03/14 23:51:34;;;;;;;2.03;1.10;;;9.00;63.40;;;;;;20740943;28;20168;-76
